createdAt,value
2018-06-02T00:02:48.922Z,6.39
2018-06-02T00:08:43.993Z,6.74
2018-06-02T00:14:38.951Z,6.96
2018-06-02T00:20:33.983Z,8.36
2018-06-02T00:26:28.978Z,7.31
2018-06-02T00:32:23.982Z,8.11
2018-06-02T00:38:19.009Z,8.17
2018-06-02T00:44:13.942Z,9.33
2018-06-02T00:50:08.920Z,8.95
2018-06-02T00:56:03.929Z,9.13
2018-06-02T01:01:58.962Z,9.03
2018-06-02T01:07:53.953Z,9.74
2018-06-02T01:13:48.921Z,10.7
2018-06-02T01:19:43.949Z,9.13
2018-06-02T01:25:38.936Z,8.98
2018-06-02T01:31:34.013Z,8.39
2018-06-02T01:37:28.938Z,8.56
2018-06-02T01:43:23.935Z,8.04
2018-06-02T01:49:18.921Z,8.6
2018-06-02T01:55:13.972Z,9.25
2018-06-02T02:01:08.926Z,7.76
2018-06-02T02:07:03.955Z,8.32
2018-06-02T02:12:58.941Z,11.26
2018-06-02T02:18:53.962Z,11.05
2018-06-02T02:24:48.993Z,10.57
2018-06-02T02:30:43.990Z,12.2
2018-06-02T02:36:39.030Z,10.26
2018-06-02T02:42:33.991Z,10.95
2018-06-02T02:48:28.973Z,9.19
2018-06-02T02:54:23.975Z,9.26
2018-06-02T03:00:18.971Z,9.97
2018-06-02T03:06:13.947Z,9.46
2018-06-02T03:12:08.993Z,8.97
2018-06-02T03:18:03.984Z,8.67
2018-06-02T03:23:58.953Z,8.55
2018-06-02T03:29:53.969Z,8.18
2018-06-02T03:35:48.982Z,7.36
2018-06-02T03:41:43.986Z,7.69
2018-06-02T03:47:38.952Z,7.21
2018-06-02T03:53:33.949Z,6.83
2018-06-02T03:59:28.949Z,6.71
2018-06-02T04:05:23.969Z,6.83
2018-06-02T04:11:18.976Z,7.02
2018-06-02T04:17:14.009Z,6.3
2018-06-02T04:23:09.047Z,5.27
2018-06-02T04:29:03.970Z,6.28
2018-06-02T04:34:58.968Z,7.41
2018-06-02T04:40:54.012Z,6.78
2018-06-02T04:46:48.961Z,7.25
2018-06-02T04:52:43.951Z,9.52
2018-06-02T04:58:38.957Z,10.3
2018-06-02T05:04:33.946Z,10.03
2018-06-02T05:10:29.022Z,7.3
2018-06-02T05:16:24.022Z,6.53
2018-06-02T05:22:18.955Z,7.11
2018-06-02T05:28:13.995Z,8.35
2018-06-02T05:34:08.950Z,8.36
2018-06-02T05:40:04.028Z,8.76
2018-06-02T05:45:59.042Z,9.26
2018-06-02T05:51:53.985Z,10.01
2018-06-02T05:57:48.947Z,10.37
2018-06-02T06:03:43.996Z,9.85
2018-06-02T06:09:39.000Z,10.89
2018-06-02T06:15:33.976Z,10.27
2018-06-02T06:21:28.961Z,9.67
2018-06-02T06:27:23.980Z,10.49
2018-06-02T06:33:19.040Z,11.05
2018-06-02T06:39:14.000Z,11.04
2018-06-02T06:45:08.981Z,11.6
2018-06-02T06:51:04.009Z,10.22
2018-06-02T06:56:59.631Z,9.88
2018-06-02T07:02:54.004Z,9.57
2018-06-02T07:08:48.988Z,10.48
2018-06-02T07:14:44.057Z,10.26
2018-06-02T07:20:38.987Z,9.99
2018-06-02T07:26:34.004Z,10.51
2018-06-02T07:32:28.968Z,9.31
2018-06-02T07:38:24.006Z,8.06
2018-06-02T07:44:19.090Z,8.69
2018-06-02T07:50:14.007Z,8.14
2018-06-02T07:56:09.048Z,7.47
2018-06-02T08:02:04.056Z,6.93
2018-06-02T08:07:59.034Z,7.42
2018-06-02T08:13:54.029Z,7.59
2018-06-02T08:19:49.001Z,6.73
2018-06-02T08:25:44.015Z,6.7
2018-06-02T08:31:38.992Z,6.44
2018-06-02T08:37:34.016Z,5.55
2018-06-02T08:43:28.994Z,6.8
2018-06-02T08:49:23.988Z,7.51
2018-06-02T08:55:19.059Z,6.69
2018-06-02T09:01:13.985Z,5.98
2018-06-02T09:07:09.056Z,6.55
2018-06-02T09:13:04.072Z,6.26
2018-06-02T09:18:59.053Z,6.93
2018-06-02T09:24:54.048Z,6.4
2018-06-02T09:30:49.060Z,6.43
2018-06-02T09:36:44.044Z,6.6
2018-06-02T09:42:39.029Z,6.75
2018-06-02T09:48:34.006Z,6.64
2018-06-02T09:54:29.048Z,5.53
2018-06-02T10:00:24.058Z,5.53
2018-06-02T10:06:19.029Z,6.2
2018-06-02T10:12:14.058Z,6.12
2018-06-02T10:18:09.106Z,6.9
2018-06-02T10:24:04.721Z,6.67
2018-06-02T10:29:59.032Z,6.71
2018-06-02T10:35:54.076Z,6.85
2018-06-02T10:41:49.079Z,7.09
2018-06-02T10:47:44.061Z,6.83
2018-06-02T10:53:39.102Z,5.79
2018-06-02T10:59:34.062Z,6.18
2018-06-02T11:05:29.072Z,4.97
2018-06-02T11:11:24.068Z,4.95
2018-06-02T11:17:19.079Z,5.14
2018-06-02T11:23:14.069Z,5.68
2018-06-02T11:29:09.099Z,5.31
2018-06-02T11:35:04.077Z,5.93
2018-06-02T11:40:59.096Z,4.73
2018-06-02T11:46:54.091Z,5.28
2018-06-02T11:52:49.058Z,5.12
2018-06-02T11:58:44.183Z,4.8
2018-06-02T12:04:39.108Z,5.16
2018-06-02T12:10:34.105Z,4.62
2018-06-02T12:16:29.132Z,4.77
2018-06-02T12:22:24.093Z,4.85
2018-06-02T12:28:19.149Z,4.45
2018-06-02T12:34:14.106Z,4.64
2018-06-02T12:40:09.193Z,4.64
2018-06-02T12:46:04.118Z,3.94
2018-06-02T12:51:59.123Z,4.22
2018-06-02T12:57:54.137Z,4.58
2018-06-02T13:03:49.092Z,4.22
2018-06-02T13:09:44.124Z,3.44
2018-06-02T13:15:39.093Z,4.24
2018-06-02T13:21:34.377Z,4.23
2018-06-02T13:27:29.214Z,3.91
2018-06-02T13:33:24.199Z,3.81
2018-06-02T13:39:19.143Z,3.34
2018-06-02T13:45:14.148Z,3.87
2018-06-02T13:51:09.145Z,3.72
2018-06-02T13:57:04.146Z,4.2
2018-06-02T14:02:59.150Z,3.63
2018-06-02T14:08:54.129Z,3.36
2018-06-02T14:14:49.136Z,4.15
2018-06-02T14:20:44.150Z,3.6
2018-06-02T14:26:39.179Z,3.56
2018-06-02T14:32:34.133Z,3.51
2018-06-02T14:38:29.161Z,2.97
2018-06-02T14:44:24.205Z,3.71
2018-06-02T14:50:19.159Z,3.35
2018-06-02T14:56:14.198Z,3.2
2018-06-02T15:02:09.223Z,3.44
2018-06-02T15:08:04.154Z,2.98
2018-06-02T15:13:59.166Z,2.88
2018-06-02T15:19:54.181Z,2.55
2018-06-02T15:25:49.179Z,3.04
2018-06-02T15:31:44.184Z,2.92
2018-06-02T15:37:39.190Z,2.72
2018-06-02T15:43:34.152Z,2.46
2018-06-02T15:49:29.293Z,2.24
2018-06-02T15:55:24.238Z,2.29
2018-06-02T16:01:19.174Z,2.02
2018-06-02T16:07:14.200Z,2
2018-06-02T16:13:09.209Z,2.47
2018-06-02T16:19:04.192Z,2.6
2018-06-02T16:24:59.175Z,2.18
2018-06-02T16:30:54.181Z,2.07
2018-06-02T16:36:49.186Z,2.13
2018-06-02T16:42:44.178Z,2.44
2018-06-02T16:48:39.247Z,2.31
2018-06-02T16:54:34.213Z,2.17
2018-06-02T17:00:29.202Z,2.41
2018-06-02T17:06:24.181Z,1.97
2018-06-02T17:12:19.443Z,1.8
2018-06-02T17:18:14.212Z,1.89
2018-06-02T17:24:09.208Z,2.18
2018-06-02T17:30:04.212Z,2.03
2018-06-02T17:35:59.240Z,2.17
2018-06-02T17:41:54.257Z,2.23
2018-06-02T17:47:49.254Z,2.66
2018-06-02T17:53:44.212Z,1.98
2018-06-02T17:59:39.293Z,2.89
2018-06-02T18:05:34.238Z,2.6
2018-06-02T18:11:29.210Z,2.86
2018-06-02T18:17:24.274Z,2.55
2018-06-02T18:23:19.277Z,2.21
2018-06-02T18:29:14.223Z,2.37
2018-06-02T18:35:09.283Z,2.62
2018-06-02T18:41:04.317Z,2.66
2018-06-02T18:46:59.321Z,3.27
2018-06-02T18:52:54.256Z,2.6
2018-06-02T18:58:49.271Z,2.07
2018-06-02T19:04:44.264Z,2.59
2018-06-02T19:10:39.273Z,2.57
2018-06-02T19:16:34.299Z,2.79
2018-06-02T19:22:29.243Z,5.93
2018-06-02T19:28:24.263Z,9.37
2018-06-02T19:34:19.262Z,15.24
2018-06-02T19:40:14.322Z,12.3
2018-06-02T19:46:09.286Z,10.99
2018-06-02T19:52:04.302Z,17.7
2018-06-02T19:57:59.289Z,5.1
2018-06-02T20:03:54.257Z,3.54
2018-06-02T20:09:49.285Z,5.09
2018-06-02T20:15:44.365Z,4.27
2018-06-02T20:21:39.262Z,2.9
2018-06-02T20:27:34.274Z,2.92
2018-06-02T20:33:29.301Z,2.57
2018-06-02T20:39:24.282Z,8.88
2018-06-02T20:45:19.274Z,9.12
2018-06-02T20:51:14.310Z,6.35
2018-06-02T20:57:09.308Z,5.1
2018-06-02T21:03:04.312Z,4.27
2018-06-02T21:08:59.372Z,2.82
2018-06-02T21:14:54.341Z,2.48
2018-06-02T21:20:49.300Z,3.17
2018-06-02T21:26:44.318Z,3.17
2018-06-02T21:32:39.267Z,2.54
2018-06-02T21:38:34.304Z,2.56
2018-06-02T21:44:29.326Z,3.2
2018-06-02T21:50:24.287Z,2.68
2018-06-02T21:56:19.289Z,2.57
2018-06-02T22:02:14.277Z,2.31
2018-06-02T22:08:09.283Z,2.62
2018-06-02T22:14:04.351Z,2.27
2018-06-02T22:19:59.370Z,2.7
2018-06-02T22:25:54.305Z,2.54
2018-06-02T22:31:49.301Z,1.86
2018-06-02T22:37:44.321Z,2.81
2018-06-02T22:43:39.325Z,2.63
2018-06-02T22:49:34.324Z,2
2018-06-02T22:55:29.327Z,2.07
2018-06-02T23:01:24.329Z,2.32
2018-06-02T23:07:19.348Z,2.7
2018-06-02T23:13:14.389Z,2.16
2018-06-02T23:19:09.333Z,2.54
2018-06-02T23:25:04.325Z,2.4
2018-06-02T23:30:59.333Z,2.62
2018-06-02T23:36:54.332Z,3.1
2018-06-02T23:42:49.317Z,2.8
2018-06-02T23:48:44.331Z,2.92
2018-06-02T23:54:39.307Z,3.28
